Corona Range LRC

2021-05-08 21:35:00

  • imperial
Date Time Air Temperature Relative Humidity Dewpoint Windchill Heat Index Wind Speed Wind Dir. Rain Solar Radiation Soil Temperature
2m 2m 3m 3m 10cm
US/Mountain F % F F F MPH deg in MJ/m^2 F
max avg avg
2021-05-07 21:50:00 62.2 45.7 40.9 62.2 62.2 6.3 10.1 7.8 44.8 46.1 0.00 0.0000000 73.8
2021-05-07 21:55:00 62.4 43.4 39.9 62.4 62.4 7.6 9.0 7.4 43.8 39.7 0.00 0.0000000 73.7
2021-05-07 22:00:00 62.5 44.2 40.4 62.5 62.5 7.2 8.8 7.4 0.8 53.2 0.00 0.0000000 73.6
2021-05-07 22:05:00 62.4 43.8 40.1 62.4 62.4 7.2 8.7 7.6 81.3 34.7 0.00 0.0000000 73.5
2021-05-07 22:10:00 62.5 44.0 40.3 62.5 62.5 6.9 8.7 7.4 73.1 77.9 0.00 0.0000000 73.4
2021-05-07 22:15:00 62.3 43.7 40.0 62.3 62.3 10.1 10.1 7.4 0.0 53.8 0.00 0.0000000 73.3
2021-05-07 22:20:00 63.1 40.3 38.6 63.1 63.1 7.1 11.7 8.4 9.8 35.5 0.00 0.0000000 73.2
2021-05-07 22:25:00 63.8 40.4 39.3 63.8 63.8 6.9 12.2 8.3 0.0 44.5 0.00 0.0000000 73.1
2021-05-07 22:30:00 63.0 41.7 39.4 63.0 63.0 12.6 13.3 9.4 0.0 21.8 0.00 0.0000000 73.1
2021-05-07 22:35:00 61.8 44.1 39.8 61.8 61.8 12.1 14.6 10.9 0.0 25.4 0.00 0.0000000 73.0
2021-05-07 22:40:00 61.0 45.4 39.7 61.0 61.0 14.2 14.6 11.1 0.8 20.7 0.00 0.0000000 72.9
2021-05-07 22:45:00 60.4 46.2 39.6 60.4 60.4 9.4 13.7 10.5 72.9 30.7 0.00 0.0000000 72.8
2021-05-07 22:50:00 60.4 46.2 39.7 60.4 60.4 7.2 11.2 9.0 0.0 31.6 0.00 0.0000000 72.8
2021-05-07 22:55:00 60.2 46.4 39.6 60.2 60.2 8.3 11.3 9.0 69.0 36.8 0.00 0.0000000 72.7
2021-05-07 23:00:00 60.2 46.3 39.5 60.2 60.2 10.8 14.6 9.6 4.3 33.4 0.00 0.0000000 72.6
2021-05-07 23:05:00 60.6 47.1 40.3 60.6 60.6 17.6 18.1 13.3 0.0 22.2 0.00 0.0000000 72.5
2021-05-07 23:10:00 60.2 48.8 40.9 60.2 60.2 9.7 15.8 12.2 68.3 21.5 0.00 0.0000000 72.4
2021-05-07 23:15:00 60.0 50.0 41.3 60.0 60.0 11.9 14.4 9.8 0.0 22.6 0.00 0.0000000 72.4
2021-05-07 23:20:00 59.7 51.2 41.6 59.7 59.7 5.6 10.5 6.4 0.6 43.8 0.00 0.0000000 72.3
2021-05-07 23:25:00 59.3 52.2 41.8 59.3 59.3 3.3 7.6 4.7 0.5 9.7 0.00 0.0000000 72.3
2021-05-07 23:30:00 58.6 53.8 41.9 58.6 58.6 3.3 4.2 2.7 0.6 5.0 0.00 0.0000000 72.2
2021-05-07 23:35:00 57.7 55.6 41.9 57.7 57.7 4.2 4.9 3.9 3.9 0.8 0.00 0.0000000 72.1
2021-05-07 23:40:00 57.6 55.3 41.7 57.6 57.6 4.6 5.6 4.4 4.8 2.4 0.00 0.0000000 72.1
2021-05-07 23:45:00 58.0 54.9 41.9 58.0 58.0 3.0 4.2 2.7 0.8 1.3 0.00 0.0000000 72.0
2021-05-07 23:50:00 58.0 56.5 42.7 58.0 58.0 7.8 7.8 5.7 136.1 25.2 0.00 0.0000000 71.9
2021-05-07 23:55:00 57.7 57.2 42.7 57.7 57.7 7.6 9.2 7.7 29.2 36.0 0.00 0.0000000 71.9
2021-05-08 00:00:00 57.5 57.7 42.7 57.5 57.5 9.0 10.8 8.9 159.9 77.2 0.00 0.0000000 71.8
2021-05-08 00:05:00 57.6 58.4 43.1 57.6 57.6 13.7 14.0 9.8 134.7 54.1 0.00 0.0000000 71.8
2021-05-08 00:10:00 57.8 58.4 43.3 57.8 57.8 10.3 12.6 10.4 101.1 52.5 0.00 0.0000000 71.7
2021-05-08 00:15:00 57.6 59.5 43.6 57.6 57.6 7.2 13.1 9.8 161.4 35.3 0.00 0.0000000 71.7
2021-05-08 00:20:00 57.4 60.5 43.8 57.4 57.4 10.8 12.1 8.4 0.8 22.8 0.00 0.0000000 71.6
2021-05-08 00:25:00 57.0 60.4 43.4 57.0 57.0 12.2 13.7 10.4 94.6 27.3 0.00 0.0000000 71.5
2021-05-08 00:30:00 57.5 60.1 43.8 57.5 57.5 2.8 13.0 7.4 27.4 23.5 0.00 0.0000000 71.5
2021-05-08 00:35:00 57.0 60.9 43.6 57.0 57.0 3.8 6.7 4.5 1.1 19.1 0.00 0.0000000 71.5
2021-05-08 00:40:00 56.3 63.1 44.0 56.3 56.3 6.3 7.2 5.3 0.0 25.9 0.00 0.0000000 71.4
2021-05-08 00:45:00 56.0 64.3 44.1 56.0 56.0 8.7 10.6 9.2 28.3 16.9 0.00 0.0000000 71.3
2021-05-08 00:50:00 55.9 64.4 44.1 55.9 55.9 4.0 8.0 5.2 38.7 16.5 0.00 0.0000000 71.3
2021-05-08 00:55:00 55.1 66.2 44.0 55.1 55.1 4.9 7.4 5.8 1.8 9.6 0.00 0.0000000 71.2
2021-05-08 01:00:00 55.5 65.6 44.2 55.5 55.5 3.5 8.0 5.5 7.4 15.2 0.00 0.0000000 71.2
2021-05-08 01:05:00 55.5 65.6 44.2 55.5 55.5 3.8 6.9 4.8 44.4 45.8 0.00 0.0000000 71.1
2021-05-08 01:10:00 55.1 66.8 44.3 55.1 55.1 4.0 4.9 4.4 1.3 64.9 0.00 0.0000000 71.1
2021-05-08 01:15:00 54.8 67.7 44.3 54.8 54.8 8.7 8.7 5.3 160.2 47.9 0.00 0.0000000 71.0
2021-05-08 01:20:00 54.7 67.9 44.3 54.7 54.7 5.6 8.0 5.3 9.6 51.3 0.00 0.0000000 71.0
2021-05-08 01:25:00 54.3 68.9 44.3 54.3 54.3 4.9 6.0 4.6 0.0 48.3 0.00 0.0000000 70.9
2021-05-08 01:30:00 53.8 70.0 44.2 53.8 53.8 4.6 6.7 5.0 1.0 13.5 0.00 0.0000000 70.9
2021-05-08 01:35:00 53.1 70.9 43.9 53.1 53.1 2.6 4.9 3.3 1.4 23.0 0.00 0.0000000 70.8
2021-05-08 01:40:00 53.3 70.8 44.0 53.3 53.3 3.5 5.5 3.4 187.2 1.8 0.00 0.0000000 70.8
2021-05-08 01:45:00 53.2 70.4 43.8 53.2 53.2 0.0 3.0 1.3 2.7 17.6 0.00 0.0000000 70.7
2021-05-08 01:50:00 52.8 70.0 43.3 52.8 52.8 4.7 5.8 2.4 0.0 9.5 0.00 0.0000000 70.7
2021-05-08 01:55:00 52.4 68.0 42.2 52.4 52.4 3.8 4.6 3.6 40.7 5.4 0.00 0.0000000 70.6
2021-05-08 02:00:00 53.6 61.6 40.7 53.6 53.6 5.3 6.7 5.5 6.9 6.7 0.00 0.0000000 70.6
2021-05-08 02:05:00 52.6 61.0 39.5 52.6 52.6 6.2 6.2 5.0 1.3 13.8 0.00 0.0000000 70.5
2021-05-08 02:10:00 54.2 50.4 36.1 54.2 54.2 7.8 8.8 7.2 141.9 2.6 0.00 0.0000000 70.4
2021-05-08 02:15:00 54.6 49.0 35.8 54.6 54.6 6.3 8.5 6.9 0.0 5.1 0.00 0.0000000 70.4
2021-05-08 02:20:00 55.7 45.3 34.8 55.7 55.7 7.8 9.6 8.3 0.0 12.7 0.00 0.0000000 70.4
2021-05-08 02:25:00 56.1 42.9 33.8 56.1 56.1 9.2 10.1 8.4 1.4 23.1 0.00 0.0000000 70.3
2021-05-08 02:30:00 55.6 44.3 34.2 55.6 55.6 6.9 8.5 7.4 0.9 18.5 0.00 0.0000000 70.3
2021-05-08 02:35:00 55.3 43.4 33.4 55.3 55.3 8.5 10.1 7.5 246.2 1.3 0.00 0.0000000 70.2
2021-05-08 02:40:00 56.1 42.5 33.6 56.1 56.1 8.7 9.9 8.9 163.8 14.5 0.00 0.0000000 70.1
2021-05-08 02:45:00 56.8 42.1 34.0 56.8 56.8 10.3 10.6 9.3 1.4 14.1 0.00 0.0000000 70.1
2021-05-08 02:50:00 58.0 40.6 34.2 58.0 58.0 11.7 12.4 10.8 1.3 16.2 0.00 0.0000000 70.0
2021-05-08 02:55:00 58.5 41.6 35.2 58.5 58.5 11.7 12.6 11.0 73.6 34.2 0.00 0.0000000 70.0
2021-05-08 03:00:00 58.6 42.5 35.9 58.6 58.6 10.8 12.8 10.6 48.7 25.8 0.00 0.0000000 69.9
2021-05-08 03:05:00 58.6 44.2 36.9 58.6 58.6 8.3 13.0 10.8 6.3 47.8 0.00 0.0000000 69.9
2021-05-08 03:10:00 58.4 45.5 37.5 58.4 58.4 11.0 13.1 10.6 47.9 58.9 0.00 0.0000000 69.8
2021-05-08 03:15:00 58.4 46.6 38.1 58.4 58.4 11.0 13.7 10.8 84.1 76.0 0.00 0.0000000 69.8
2021-05-08 03:20:00 58.1 48.1 38.6 58.1 58.1 6.5 13.7 9.4 84.3 63.0 0.00 0.0000000 69.7
2021-05-08 03:25:00 58.1 47.7 38.4 58.1 58.1 11.9 13.7 10.1 84.3 69.6 0.00 0.0000000 69.7
2021-05-08 03:30:00 58.3 47.7 38.5 58.3 58.3 9.7 14.0 10.4 91.7 58.4 0.00 0.0000000 69.7
2021-05-08 03:35:00 58.0 48.9 38.9 58.0 58.0 10.1 13.3 9.9 0.0 80.0 0.00 0.0000000 69.6
2021-05-08 03:40:00 57.9 49.1 38.9 57.9 57.9 10.3 14.9 10.9 24.2 63.4 0.00 0.0000000 69.6
2021-05-08 03:45:00 58.1 49.1 39.1 58.1 58.1 10.8 13.5 11.5 56.5 78.7 0.00 0.0000000 69.5
2021-05-08 03:50:00 57.9 49.9 39.3 57.9 57.9 12.2 14.0 11.5 114.3 72.5 0.00 0.0000000 69.5
2021-05-08 03:55:00 57.8 50.0 39.2 57.8 57.8 11.2 16.4 11.8 69.8 84.1 0.00 0.0000000 69.4
2021-05-08 04:00:00 57.6 49.7 38.9 57.6 57.6 15.1 15.3 11.7 34.8 99.8 0.00 0.0000000 69.4
2021-05-08 04:05:00 57.8 49.6 39.1 57.8 57.8 13.0 15.8 12.6 152.2 134.5 0.00 0.0000000 69.4
2021-05-08 04:10:00 57.4 50.5 39.1 57.4 57.4 11.5 14.2 11.3 188.4 134.0 0.00 0.0000000 69.4
2021-05-08 04:15:00 57.1 50.4 38.9 57.1 57.1 10.5 13.5 10.8 188.9 173.7 0.00 0.0000000 69.3
2021-05-08 04:20:00 56.9 50.8 38.9 56.9 56.9 11.7 12.2 10.7 163.6 157.8 0.00 0.0000000 69.3
2021-05-08 04:25:00 56.9 50.7 38.8 56.9 56.9 12.1 13.9 11.4 157.8 162.8 0.00 0.0000000 69.2
2021-05-08 04:30:00 56.7 51.1 38.8 56.7 56.7 12.1 15.3 11.6 206.9 214.3 0.00 0.0000000 69.2
2021-05-08 04:35:00 56.9 50.2 38.5 56.9 56.9 12.4 14.2 12.1 141.1 202.5 0.00 0.0000000 69.2
2021-05-08 04:40:00 56.7 51.0 38.8 56.7 56.7 10.3 15.3 11.6 139.5 162.5 0.00 0.0000000 69.1
2021-05-08 04:45:00 57.0 49.5 38.3 57.0 57.0 9.6 14.2 11.9 114.2 134.1 0.00 0.0000000 69.1
2021-05-08 04:50:00 56.4 50.1 38.0 56.4 56.4 11.9 13.1 10.6 155.8 170.5 0.00 0.0000000 69.0
2021-05-08 04:55:00 56.3 51.6 38.7 56.3 56.3 10.5 13.9 11.7 127.5 133.2 0.00 0.0000000 69.0
2021-05-08 05:00:00 56.3 51.5 38.7 56.3 56.3 10.8 16.2 12.5 213.1 157.4 0.00 0.0000000 69.0
2021-05-08 05:05:00 56.3 51.7 38.7 56.3 56.3 9.6 14.4 11.8 72.3 182.6 0.00 0.0000000 68.9
2021-05-08 05:10:00 55.8 52.3 38.6 55.8 55.8 9.4 13.7 9.6 90.1 176.3 0.00 0.0000000 68.9
2021-05-08 05:15:00 55.5 52.6 38.5 55.5 55.5 10.8 12.6 10.4 172.3 135.7 0.00 0.0000000 68.9
2021-05-08 05:20:00 55.4 53.1 38.6 55.4 55.4 10.5 13.3 10.8 95.0 173.5 0.00 0.0000000 68.8
2021-05-08 05:25:00 55.1 54.1 38.8 55.1 55.1 9.0 11.7 9.8 226.9 177.1 0.00 0.0000000 68.8
2021-05-08 05:30:00 54.9 53.8 38.4 54.9 54.9 8.7 11.9 9.5 221.1 179.0 0.00 0.0000000 68.8
2021-05-08 05:35:00 54.6 53.1 37.9 54.6 54.6 6.7 12.1 8.8 233.1 183.9 0.00 0.0000000 68.8
2021-05-08 05:40:00 52.4 55.6 36.9 52.4 52.4 4.2 7.4 5.0 199.4 215.3 0.00 0.0000000 68.7
2021-05-08 05:45:00 49.8 60.0 36.5 48.3 49.8 4.6 4.9 4.4 194.3 224.5 0.00 0.0000000 68.7
2021-05-08 05:50:00 48.9 61.9 36.4 46.6 48.9 5.5 5.6 4.9 239.5 173.3 0.00 0.0000000 68.7
2021-05-08 05:55:00 48.1 63.3 36.2 45.6 48.1 5.5 6.3 5.2 274.0 203.0 0.00 0.0000000 68.7
2021-05-08 06:00:00 47.9 63.4 36.1 45.7 47.9 5.1 6.2 5.5 276.8 209.8 0.00 0.0000000 68.6
2021-05-08 06:05:00 47.6 64.5 36.2 45.5 47.6 4.7 5.8 5.0 289.5 215.4 0.00 0.0000000 68.6
2021-05-08 06:10:00 47.7 62.4 35.5 45.1 47.7 5.6 6.2 5.4 78.7 227.8 0.00 0.0000629 68.6
2021-05-08 06:15:00 48.8 59.2 35.2 46.1 48.8 6.2 7.1 6.0 149.9 208.9 0.00 0.0017857 68.6
2021-05-08 06:20:00 48.8 60.8 35.8 46.5 48.8 5.5 6.9 6.0 52.8 199.9 0.00 0.0045320 68.5
2021-05-08 06:25:00 47.5 64.4 36.1 44.3 47.5 6.7 8.0 6.4 209.1 180.8 0.00 0.0076948 68.5
2021-05-08 06:30:00 47.7 64.6 36.4 44.9 47.7 6.0 7.6 6.8 266.6 206.0 0.00 0.0116154 68.4
2021-05-08 06:35:00 48.0 63.7 36.2 45.3 48.0 5.8 7.1 5.7 209.7 235.0 0.00 0.0147993 68.4
2021-05-08 06:40:00 49.2 60.6 36.2 47.0 49.2 5.5 7.4 6.4 108.1 232.0 0.00 0.0180349 68.4
2021-05-08 06:45:00 50.1 57.5 35.7 50.1 50.1 5.8 7.4 6.2 284.3 247.0 0.00 0.0215191 68.5
2021-05-08 06:50:00 51.2 52.9 34.6 51.2 51.2 6.3 8.1 6.2 268.9 232.9 0.00 0.0250730 68.6
2021-05-08 06:55:00 52.9 41.8 30.3 52.9 52.9 6.3 8.7 6.8 268.4 232.8 0.00 0.0164748 68.6
2021-05-08 07:00:00 54.4 33.0 25.8 54.4 54.4 9.4 9.4 7.3 224.9 229.1 0.00 0.0250513 68.6
2021-05-08 07:05:00 56.0 29.7 24.7 56.0 56.0 6.5 8.7 7.6 245.9 199.9 0.00 0.0289421 68.5
2021-05-08 07:10:00 56.5 27.7 23.5 56.5 56.5 7.2 8.1 7.0 217.5 221.1 0.00 0.0263067 68.5
2021-05-08 07:15:00 57.4 25.8 22.6 57.4 57.4 7.4 8.5 7.0 238.6 213.1 0.00 0.0368831 68.5
2021-05-08 07:20:00 58.0 25.3 22.7 58.0 58.0 6.3 7.8 6.4 184.9 209.5 0.00 0.0335596 68.5
2021-05-08 07:25:00 58.8 24.1 22.1 58.8 58.8 6.2 6.9 5.8 238.7 212.0 0.00 0.0437931 68.5
2021-05-08 07:30:00 59.8 20.3 19.0 59.8 59.8 8.3 8.3 5.8 237.4 213.8 0.00 0.0489997 68.4
2021-05-08 07:35:00 61.0 18.5 17.8 61.0 61.0 8.5 9.4 7.4 255.8 227.8 0.00 0.0538227 68.4
2021-05-08 07:40:00 61.8 17.6 17.3 61.8 61.8 7.4 9.4 7.4 238.4 227.7 0.00 0.0544917 68.4
2021-05-08 07:45:00 62.3 17.0 16.9 62.3 62.3 5.6 9.7 7.6 266.0 229.1 0.00 0.0525817 68.3
2021-05-08 07:50:00 62.8 16.5 16.6 62.8 62.8 7.8 10.1 8.1 217.4 231.3 0.00 0.0633783 68.3
2021-05-08 07:55:00 63.5 13.8 13.0 63.5 63.5 11.2 11.5 8.8 234.2 225.5 0.00 0.0705478 68.3
2021-05-08 08:00:00 63.2 16.1 16.4 63.2 63.2 6.0 12.1 7.8 199.0 201.2 0.00 0.0475958 68.3
2021-05-08 08:05:00 64.3 13.8 13.8 64.3 64.3 8.3 11.5 8.1 255.9 211.0 0.00 0.0632531 68.3
2021-05-08 08:10:00 65.4 12.1 11.7 65.4 65.4 10.8 13.7 10.1 166.2 230.3 0.00 0.0743245 68.2
2021-05-08 08:15:00 65.6 11.3 10.2 65.6 65.6 15.8 15.8 12.2 236.9 216.8 0.00 0.0799049 68.2
2021-05-08 08:20:00 65.6 11.9 11.4 65.6 65.6 12.4 15.8 12.3 271.2 218.6 0.00 0.0793631 68.2
2021-05-08 08:25:00 65.9 11.3 10.4 65.9 65.9 14.4 18.3 12.7 207.8 198.5 0.00 0.0853045 68.2
2021-05-08 08:30:00 65.7 11.1 9.9 65.7 65.7 13.3 16.7 12.8 236.3 183.2 0.00 0.0894187 68.2
2021-05-08 08:35:00 66.2 11.8 11.6 66.2 66.2 11.5 17.4 13.0 104.4 215.2 0.00 0.0973698 68.2
2021-05-08 08:40:00 66.1 11.6 11.1 66.1 66.1 13.5 18.1 12.9 244.2 199.2 0.00 0.0930175 68.2
2021-05-08 08:45:00 66.3 11.3 10.7 66.3 66.3 12.4 18.3 12.8 147.6 228.5 0.00 0.0920846 68.2
2021-05-08 08:50:00 66.9 11.6 11.8 66.9 66.9 10.6 17.6 12.6 179.2 222.2 0.00 0.1106511 68.2
2021-05-08 08:55:00 66.6 11.4 11.1 66.6 66.6 13.0 18.7 12.9 253.2 237.1 0.00 0.0974411 68.2
2021-05-08 09:00:00 67.4 11.5 12.0 67.4 67.4 11.2 15.6 12.8 255.0 219.8 0.00 0.1166275 68.2
2021-05-08 09:05:00 67.3 11.7 12.4 67.3 67.3 15.1 19.8 13.0 268.2 223.9 0.00 0.1042298 68.3
2021-05-08 09:10:00 67.5 11.5 12.1 67.5 67.5 19.6 19.6 15.0 145.8 208.5 0.00 0.1138420 68.3
2021-05-08 09:15:00 66.4 12.1 12.4 66.4 66.4 17.4 21.0 17.7 199.9 205.7 0.00 0.0985487 68.3
2021-05-08 09:20:00 66.7 12.0 12.5 66.7 66.7 14.9 19.4 15.3 29.8 160.6 0.00 0.1115984 68.4
2021-05-08 09:25:00 66.5 12.6 13.5 66.5 66.5 11.3 22.8 16.1 241.9 6.6 0.00 0.1017666 68.4
2021-05-08 09:30:00 67.4 12.3 13.6 67.4 67.4 13.0 21.0 14.5 251.3 156.2 0.00 0.1205583 68.5
2021-05-08 09:35:00 68.0 12.0 13.5 68.0 68.0 15.1 24.4 15.6 266.7 173.7 0.00 0.1275938 68.6
2021-05-08 09:40:00 68.0 11.9 13.3 68.0 68.0 12.1 16.9 13.9 127.0 141.2 0.00 0.1338148 68.7
2021-05-08 09:45:00 70.0 11.2 13.4 70.0 70.0 10.6 18.0 13.2 205.3 191.4 0.00 0.1366889 68.8
2021-05-08 09:50:00 69.2 10.7 11.9 69.2 69.2 15.3 20.3 13.9 222.0 195.6 0.00 0.1397763 68.8
2021-05-08 09:55:00 68.7 11.6 13.2 68.7 68.7 15.1 21.9 16.6 68.2 144.4 0.00 0.1439829 68.9
2021-05-08 10:00:00 69.2 10.6 11.6 69.2 69.2 19.8 23.5 18.1 200.1 57.4 0.00 0.1484380 69.1
2021-05-08 10:05:00 69.4 10.9 12.5 69.4 69.4 16.0 20.8 16.6 152.8 74.0 0.00 0.1521949 69.1
2021-05-08 10:10:00 69.3 10.3 10.9 69.3 69.3 18.1 22.1 17.2 115.5 54.6 0.00 0.1348184 69.2
2021-05-08 10:15:00 68.9 10.7 11.5 68.9 68.9 20.1 24.2 18.5 87.0 62.8 0.00 0.1463466 69.3
2021-05-08 10:20:00 69.2 10.3 10.9 69.2 69.2 15.5 21.9 17.4 60.5 89.0 0.00 0.1530092 69.4
2021-05-08 10:25:00 69.4 11.1 12.8 69.4 69.4 15.1 21.7 16.1 11.9 83.2 0.00 0.1564875 69.5
2021-05-08 10:30:00 69.9 10.1 10.9 69.9 69.9 14.2 21.7 16.2 157.3 81.7 0.00 0.1624485 69.6
2021-05-08 10:35:00 71.1 10.4 12.6 71.1 71.1 23.3 23.3 15.2 132.0 87.1 0.00 0.1650248 69.7
2021-05-08 10:40:00 70.1 10.1 11.3 70.1 70.1 17.6 24.8 18.2 0.0 52.3 0.00 0.1658294 69.8
2021-05-08 10:45:00 70.9 9.7 11.0 70.9 70.9 13.5 20.1 15.7 113.1 111.8 0.00 0.1509380 69.9
2021-05-08 10:50:00 71.2 9.5 10.7 71.2 71.2 15.1 21.5 17.1 118.4 95.1 0.00 0.1535103 69.9
2021-05-08 10:55:00 70.2 10.6 12.3 70.2 70.2 18.0 23.0 18.6 167.9 109.0 0.00 0.1513267 70.0
2021-05-08 11:00:00 70.6 10.4 12.2 70.6 70.6 20.8 26.4 17.8 49.8 78.8 0.00 0.1743463 70.1
2021-05-08 11:05:00 71.4 9.7 11.2 71.4 71.4 17.6 23.2 17.9 37.9 59.9 0.00 0.1765034 70.2
2021-05-08 11:10:00 70.9 10.0 11.5 70.9 70.9 19.6 26.4 21.6 183.5 65.0 0.00 0.1782924 70.4
2021-05-08 11:15:00 71.2 10.2 12.1 71.2 71.2 21.4 26.2 19.6 136.3 81.3 0.00 0.1765360 70.5
2021-05-08 11:20:00 72.4 9.2 10.8 72.4 72.4 17.1 22.4 17.4 187.1 83.4 0.00 0.1806025 70.5
2021-05-08 11:25:00 72.2 10.1 12.8 72.2 72.2 19.8 23.7 16.8 113.3 87.3 0.00 0.1808905 70.7
2021-05-08 11:30:00 72.2 9.3 11.0 72.2 72.2 19.8 22.3 18.6 19.3 48.0 0.00 0.1830746 70.8
2021-05-08 11:35:00 72.3 10.3 13.2 72.3 72.3 12.6 22.3 16.2 67.3 44.7 0.00 0.1858433 70.9
2021-05-08 11:40:00 71.5 9.2 10.2 71.5 71.5 16.7 27.2 19.7 123.8 47.2 0.00 0.1769327 71.1
2021-05-08 11:45:00 71.6 8.4 8.1 71.6 71.6 18.7 26.2 19.3 18.1 51.0 0.00 0.1539652 71.2
2021-05-08 11:50:00 72.2 8.7 9.4 72.2 72.2 13.9 26.2 18.7 183.8 56.6 0.00 0.1840259 71.3
2021-05-08 11:55:00 72.0 8.7 9.3 72.0 72.0 19.4 26.9 19.4 106.8 56.3 0.00 0.1904317 71.4
2021-05-08 12:00:00 72.3 8.7 9.5 72.3 72.3 14.4 24.2 18.3 149.6 63.8 0.00 0.1910900 71.6
2021-05-08 12:05:00 73.3 7.7 7.6 73.3 73.3 19.4 25.5 18.3 218.8 204.9 0.00 0.1924747 71.7
2021-05-08 12:10:00 72.5 7.8 7.2 72.5 72.5 18.5 26.9 21.3 109.6 62.0 0.00 0.1929841 71.8
2021-05-08 12:15:00 73.1 8.7 10.1 73.1 73.1 18.1 27.6 20.6 96.0 58.4 0.00 0.1942058 72.0
2021-05-08 12:20:00 72.7 8.9 10.3 72.7 72.7 20.1 26.0 19.4 93.3 44.7 0.00 0.1932500 72.1
2021-05-08 12:25:00 73.8 6.6 4.7 73.8 73.8 18.7 24.6 18.8 21.7 12.8 0.00 0.1948809 72.2
2021-05-08 12:30:00 72.1 9.4 11.1 72.1 72.1 12.2 24.6 17.4 184.8 136.3 0.00 0.1956650 72.4
2021-05-08 12:35:00 73.0 9.0 10.7 73.0 73.0 17.2 21.0 16.4 191.3 77.0 0.00 0.1949554 72.5
2021-05-08 12:40:00 73.0 8.3 8.9 73.0 73.0 14.0 24.6 18.8 1.7 43.9 0.00 0.1962096 72.6
2021-05-08 12:45:00 73.9 7.3 6.7 73.9 73.9 20.8 24.2 19.0 222.2 57.3 0.00 0.1967205 72.8
2021-05-08 12:50:00 73.5 6.8 4.9 73.5 73.5 19.2 24.0 18.1 89.9 92.6 0.00 0.1959077 72.9
2021-05-08 12:55:00 73.0 7.3 6.2 73.0 73.0 15.3 21.7 16.9 73.4 72.3 0.00 0.1954972 73.0
2021-05-08 13:00:00 73.0 8.4 9.2 73.0 73.0 16.2 26.9 21.0 33.3 54.2 0.00 0.1944060 73.2
2021-05-08 13:05:00 73.5 7.7 7.7 73.5 73.5 18.7 22.8 17.9 197.1 70.0 0.00 0.1939060 73.3
2021-05-08 13:10:00 73.9 7.7 7.9 73.9 73.9 14.2 20.8 16.1 197.2 99.2 0.00 0.1936477 73.5
2021-05-08 13:15:00 73.7 8.0 8.7 73.7 73.7 16.9 24.9 16.0 136.0 96.6 0.00 0.1927278 73.6
2021-05-08 13:20:00 74.3 7.5 7.6 74.3 74.3 15.5 25.3 19.1 43.0 111.1 0.00 0.1930363 73.7
2021-05-08 13:25:00 73.8 7.1 6.2 73.8 73.8 13.9 22.1 14.9 207.4 96.3 0.00 0.1930017 73.9
2021-05-08 13:30:00 74.4 7.4 7.3 74.4 74.4 16.4 26.2 18.3 104.1 104.0 0.00 0.1938207 74.0
2021-05-08 13:35:00 75.8 6.5 5.8 75.8 75.8 16.9 19.9 13.9 105.1 98.4 0.00 0.1865869 74.1
2021-05-08 13:40:00 76.1 6.0 4.2 76.1 76.1 21.4 22.1 14.7 118.6 115.7 0.00 0.1843105 74.3
2021-05-08 13:45:00 74.7 6.4 4.7 74.7 74.7 17.2 26.2 20.1 170.4 119.9 0.00 0.1886219 74.4
2021-05-08 13:50:00 75.5 7.2 7.7 75.5 75.5 16.7 22.6 17.8 8.6 125.3 0.00 0.1887611 74.5
2021-05-08 13:55:00 75.2 6.7 6.0 75.2 75.2 19.0 25.3 18.3 30.9 79.6 0.00 0.1880144 74.7
2021-05-08 14:00:00 74.7 6.2 3.9 74.7 74.7 18.1 22.8 17.5 111.0 105.2 0.00 0.1867837 74.8
2021-05-08 14:05:00 74.2 6.7 5.2 74.2 74.2 18.9 25.3 18.6 138.6 106.0 0.00 0.1835895 75.0
2021-05-08 14:10:00 75.4 6.5 5.3 75.4 75.4 20.8 27.4 19.3 161.7 107.2 0.00 0.1851268 75.1
2021-05-08 14:15:00 75.5 7.2 7.5 75.5 75.5 22.1 23.0 17.3 240.6 119.1 0.00 0.1826930 75.3
2021-05-08 14:20:00 74.8 6.9 6.4 74.8 74.8 19.0 26.4 18.1 113.5 116.6 0.00 0.1806419 75.4
2021-05-08 14:25:00 75.8 6.2 4.5 75.8 75.8 22.6 25.6 18.4 53.7 88.9 0.00 0.1821221 75.5
2021-05-08 14:30:00 75.7 6.8 6.6 75.7 75.7 15.1 23.0 16.3 113.9 124.2 0.00 0.1789846 75.7
2021-05-08 14:35:00 75.9 6.7 6.5 75.9 75.9 16.2 25.1 18.5 29.9 106.8 0.00 0.1785032 75.8
2021-05-08 14:40:00 74.8 7.3 7.3 74.8 74.8 13.7 27.4 20.1 189.0 147.1 0.00 0.1760325 76.0
2021-05-08 14:45:00 75.8 5.8 3.3 75.8 75.8 23.7 28.9 20.1 241.6 173.1 0.00 0.1744035 76.1
2021-05-08 14:50:00 75.1 6.1 3.7 75.1 75.1 24.0 28.9 22.3 120.5 135.7 0.00 0.1718212 76.2
2021-05-08 14:55:00 75.3 6.1 3.8 75.3 75.3 16.0 23.7 19.0 117.3 107.1 0.00 0.1692692 76.4
2021-05-08 15:00:00 75.3 5.8 2.9 75.3 75.3 19.9 25.1 16.4 143.8 122.0 0.00 0.1660707 76.5
2021-05-08 15:05:00 75.3 6.0 3.4 75.3 75.3 25.8 29.6 23.3 19.4 76.7 0.00 0.1646028 76.6
2021-05-08 15:10:00 75.5 6.3 4.9 75.5 75.5 17.4 25.3 18.0 115.7 108.8 0.00 0.1620919 76.8
2021-05-08 15:15:00 75.8 6.4 5.4 75.8 75.8 24.2 24.2 17.1 208.4 106.3 0.00 0.1596458 76.9
2021-05-08 15:20:00 75.3 6.4 4.8 75.3 75.3 19.2 27.4 21.2 127.6 113.0 0.00 0.1572658 77.0
2021-05-08 15:25:00 75.6 5.9 3.2 75.6 75.6 19.2 27.8 20.0 221.6 46.9 0.00 0.1557994 77.1
2021-05-08 15:30:00 75.3 6.2 4.2 75.3 75.3 18.5 30.6 20.4 220.5 102.0 0.00 0.1531873 77.3
2021-05-08 15:35:00 75.0 6.2 4.2 75.0 75.0 14.4 27.6 21.0 167.7 106.3 0.00 0.1417950 77.4
2021-05-08 15:40:00 75.6 6.3 4.9 75.6 75.6 16.2 25.6 20.0 39.7 138.9 0.00 0.1486216 77.5
2021-05-08 15:45:00 75.5 6.2 4.5 75.5 75.5 19.8 24.6 19.9 156.9 92.2 0.00 0.1462128 77.6
2021-05-08 15:50:00 76.4 5.7 3.1 76.4 76.4 21.7 23.3 18.5 31.0 58.3 0.00 0.1463078 77.8
2021-05-08 15:55:00 76.2 6.3 5.3 76.2 76.2 23.0 23.0 17.8 103.4 84.2 0.00 0.1428120 77.9
2021-05-08 16:00:00 75.8 6.4 5.4 75.8 75.8 19.9 27.6 21.9 39.0 64.5 0.00 0.1373326 78.0
2021-05-08 16:05:00 75.9 6.7 6.3 75.9 75.9 21.2 24.6 16.2 153.3 87.6 0.00 0.1344232 78.1
2021-05-08 16:10:00 76.4 6.2 5.2 76.4 76.4 20.8 31.5 23.6 109.4 85.5 0.00 0.1323708 78.2
2021-05-08 16:15:00 75.4 6.5 5.5 75.4 75.4 16.0 31.5 21.9 48.6 75.6 0.00 0.1286838 78.3
2021-05-08 16:20:00 75.7 6.4 5.4 75.7 75.7 22.1 23.3 19.3 79.4 90.2 0.00 0.1256640 78.4
2021-05-08 16:25:00 76.4 6.2 5.1 76.4 76.4 21.7 27.1 20.3 124.2 104.2 0.00 0.1225890 78.5
2021-05-08 16:30:00 75.8 6.7 6.2 75.8 75.8 19.0 24.0 19.7 235.7 103.0 0.00 0.1196245 78.6
2021-05-08 16:35:00 75.7 6.5 5.6 75.7 75.7 15.8 26.9 18.7 54.8 120.3 0.00 0.1144004 78.6
2021-05-08 16:40:00 75.6 6.4 5.2 75.6 75.6 15.1 26.4 20.1 143.4 125.8 0.00 0.1130729 78.7
2021-05-08 16:45:00 75.4 6.4 5.0 75.4 75.4 23.0 31.9 24.1 147.9 154.3 0.00 0.1108758 78.8
2021-05-08 16:50:00 76.1 6.3 5.3 76.1 76.1 18.5 26.2 19.4 156.3 164.2 0.00 0.1072752 78.9
2021-05-08 16:55:00 76.6 5.9 4.0 76.6 76.6 26.4 28.7 21.0 107.1 159.7 0.00 0.1021276 79.0
2021-05-08 17:00:00 75.3 6.3 4.7 75.3 75.3 15.3 32.6 21.1 137.8 136.1 0.00 0.0926037 79.0
2021-05-08 17:05:00 76.0 6.3 5.1 76.0 76.0 21.5 28.1 19.4 127.9 151.9 0.00 0.0984533 79.1
2021-05-08 17:10:00 75.6 6.4 5.3 75.6 75.6 23.9 25.8 19.3 76.1 103.3 0.00 0.0941966 79.1
2021-05-08 17:15:00 76.1 6.4 5.6 76.1 76.1 17.6 24.8 19.0 205.6 130.8 0.00 0.0898958 79.2
2021-05-08 17:20:00 76.2 6.1 4.5 76.2 76.2 16.2 23.2 19.7 203.5 181.3 0.00 0.0857880 79.2
2021-05-08 17:25:00 75.8 6.2 4.5 75.8 75.8 16.9 26.9 19.9 199.9 175.1 0.00 0.0831641 79.3
2021-05-08 17:30:00 76.8 5.9 4.2 76.8 76.8 17.6 22.4 15.6 186.9 187.6 0.00 0.0795644 79.3
2021-05-08 17:35:00 75.8 6.0 4.0 75.8 75.8 17.1 21.5 17.7 224.6 165.9 0.00 0.0754866 79.3
2021-05-08 17:40:00 75.8 5.9 3.4 75.8 75.8 15.1 27.4 21.6 88.6 108.7 0.00 0.0723949 79.4
2021-05-08 17:45:00 76.1 6.0 4.2 76.1 76.1 19.4 21.9 18.4 124.1 147.6 0.00 0.0692519 79.4
2021-05-08 17:50:00 75.9 5.9 3.6 75.9 75.9 14.9 20.1 15.6 97.2 162.7 0.00 0.0660702 79.4
2021-05-08 17:55:00 76.6 4.9 0.1 76.6 76.6 20.8 25.1 16.1 177.2 128.7 0.00 0.0625645 79.4
2021-05-08 18:00:00 75.9 4.9 -0.3 75.9 75.9 17.4 23.3 17.1 55.7 100.9 0.00 0.0590614 79.4
2021-05-08 18:05:00 75.3 5.4 1.4 75.3 75.3 15.8 19.8 17.3 78.6 102.8 0.00 0.0558067 79.4
2021-05-08 18:10:00 74.8 5.8 2.4 74.8 74.8 16.4 24.8 20.0 139.8 136.0 0.00 0.0526920 79.4
2021-05-08 18:15:00 74.7 6.0 3.2 74.7 74.7 19.6 26.0 20.6 187.1 131.9 0.00 0.0494652 79.4
2021-05-08 18:20:00 74.8 6.4 4.7 74.8 74.8 15.6 23.3 17.5 63.3 109.8 0.00 0.0460594 79.4
2021-05-08 18:25:00 74.4 6.5 4.6 74.4 74.4 14.7 21.9 17.8 7.0 48.6 0.00 0.0427416 79.4
2021-05-08 18:30:00 74.7 6.5 4.8 74.7 74.7 11.2 20.6 14.9 203.4 76.2 0.00 0.0397860 79.4
2021-05-08 18:35:00 74.2 6.6 4.8 74.2 74.2 15.6 22.6 16.9 139.3 81.3 0.00 0.0363620 79.4
2021-05-08 18:40:00 74.5 5.7 1.8 74.5 74.5 18.3 18.3 12.3 196.4 56.3 0.00 0.0329112 79.4
2021-05-08 18:45:00 73.8 5.3 -0.0 73.8 73.8 17.6 23.5 18.0 123.3 148.3 0.00 0.0297268 79.4
2021-05-08 18:50:00 73.4 5.1 -1.4 73.4 73.4 13.1 21.9 17.2 2.0 58.1 0.00 0.0271035 79.3
2021-05-08 18:55:00 73.3 4.8 -2.8 73.3 73.3 16.9 18.9 14.7 55.0 56.2 0.00 0.0242322 79.3
2021-05-08 19:00:00 72.8 4.5 -4.2 72.8 72.8 19.6 20.3 16.3 137.5 53.2 0.00 0.0214867 79.3
2021-05-08 19:05:00 72.5 4.7 -3.8 72.5 72.5 15.5 18.0 14.7 45.7 122.3 0.00 0.0190401 79.2
2021-05-08 19:10:00 72.1 4.8 -3.3 72.1 72.1 22.1 24.9 18.6 104.8 47.9 0.00 0.0168035 79.2
2021-05-08 19:15:00 71.8 5.0 -3.0 71.8 71.8 14.2 24.4 18.8 10.7 42.4 0.00 0.0142763 79.1
2021-05-08 19:20:00 71.4 5.1 -2.8 71.4 71.4 13.3 22.3 16.0 192.1 100.2 0.00 0.0115712 79.0
2021-05-08 19:25:00 71.1 5.5 -1.4 71.1 71.1 16.7 21.7 17.3 195.1 65.7 0.00 0.0092888 79.0
2021-05-08 19:30:00 70.8 5.7 -0.8 70.8 70.8 14.7 19.4 15.6 58.9 49.5 0.00 0.0068252 78.9
2021-05-08 19:35:00 70.2 6.2 0.6 70.2 70.2 17.8 21.9 14.3 46.1 75.1 0.00 0.0044126 78.9
2021-05-08 19:40:00 70.1 6.3 0.9 70.1 70.1 15.1 23.7 17.7 51.7 54.6 0.00 0.0013102 78.8
2021-05-08 19:45:00 69.7 6.4 0.9 69.7 69.7 14.7 21.4 15.6 23.1 70.8 0.00 0.0000000 78.7
2021-05-08 19:50:00 68.8 6.8 1.5 68.8 68.8 10.6 16.5 13.5 169.7 106.5 0.00 0.0000000 78.6
2021-05-08 19:55:00 68.2 7.0 1.5 68.2 68.2 12.6 15.8 12.1 6.8 81.6 0.00 0.0000000 78.5
2021-05-08 20:00:00 67.6 7.2 1.8 67.6 67.6 11.5 13.9 11.4 234.5 119.7 0.00 0.0000000 78.5
2021-05-08 20:05:00 66.6 7.5 1.8 66.6 66.6 9.4 12.6 9.3 142.8 103.9 0.00 0.0000000 78.4
2021-05-08 20:10:00 66.7 7.3 1.4 66.7 66.7 11.3 15.3 11.0 149.9 137.6 0.00 0.0000000 78.3
2021-05-08 20:15:00 66.5 7.4 1.6 66.5 66.5 15.3 15.3 11.4 188.5 128.1 0.00 0.0000000 78.2
2021-05-08 20:20:00 66.8 7.5 2.2 66.8 66.8 10.8 16.5 12.5 24.3 97.3 0.00 0.0000000 78.1
2021-05-08 20:25:00 66.6 7.7 2.6 66.6 66.6 11.9 15.6 11.5 150.7 119.4 0.00 0.0000000 78.0
2021-05-08 20:30:00 66.1 7.9 2.8 66.1 66.1 7.4 14.7 10.4 147.4 145.3 0.00 0.0000000 77.9
2021-05-08 20:35:00 65.4 8.1 2.8 65.4 65.4 9.9 12.4 9.7 82.1 123.4 0.00 0.0000000 77.8
2021-05-08 20:40:00 64.9 8.3 3.0 64.9 64.9 6.5 11.0 8.7 150.7 134.5 0.00 0.0000000 77.7
2021-05-08 20:45:00 64.3 8.5 3.0 64.3 64.3 9.4 11.3 8.4 179.1 156.6 0.00 0.0000000 77.6
2021-05-08 20:50:00 63.8 8.8 3.4 63.8 63.8 8.8 12.1 9.4 85.3 187.3 0.00 0.0000000 77.5
2021-05-08 20:55:00 63.6 9.0 3.6 63.6 63.6 10.8 13.0 10.0 52.1 169.2 0.00 0.0000000 77.4
2021-05-08 21:00:00 63.2 9.1 3.7 63.2 63.2 7.8 11.0 9.2 3.0 165.5 0.00 0.0000000 77.3
2021-05-08 21:05:00 62.8 9.3 3.8 62.8 62.8 7.8 10.8 9.0 120.9 134.9 0.00 0.0000000 77.2
2021-05-08 21:10:00 62.7 9.4 4.0 62.7 62.7 8.8 11.9 9.1 6.2 175.4 0.00 0.0000000 77.1
2021-05-08 21:15:00 63.0 9.4 4.1 63.0 63.0 7.6 12.4 9.4 181.7 189.4 0.00 0.0000000 77.0
2021-05-08 21:20:00 62.7 9.7 4.5 62.7 62.7 8.7 11.2 8.7 232.2 161.5 0.00 0.0000000 76.9
2021-05-08 21:25:00 62.9 9.6 4.5 62.9 62.9 9.4 11.2 9.1 22.2 209.1 0.00 0.0000000 76.8
2021-05-08 21:30:00 62.6 9.7 4.5 62.6 62.6 8.7 10.6 8.7 270.6 201.8 0.00 0.0000000 76.7
2021-05-08 21:35:00 62.2 9.8 4.5 62.2 62.2 6.9 11.5 8.3 239.4 171.4 0.00 0.0000000 76.6

Data is courtesy of the NM Climate Center. DO NOT USE IN LEGAL PROCEEDINGS.